Time;durP1;ratioP1;P1;durP2;ratioP2;P2;SDS_P1;SDS_P2;PMS_P1;PMS_P2;Temp;Humidity;BMP_temperature;BMP_pressure;BME280_temperature;BME280_humidity;BME280_pressure;Samples;Min_cycle;Max_cycle;Signal;HPM_P1;HPM_P2
2022/09/23 00:01:18;;;;;;;10.40;9.30;;;11.10;99.90;;;;;;6221255;22;20019;-87
2022/09/23 00:03:47;;;;;;;11.02;9.93;;;11.00;99.90;;;;;;6221383;22;20028;-90
2022/09/23 00:06:21;;;;;;;11.88;8.95;;;11.40;99.90;;;;;;6222043;22;20347;-88
2022/09/23 00:08:53;;;;;;;10.75;8.60;;;11.10;99.90;;;;;;6213309;23;20606;-87
2022/09/23 00:11:24;;;;;;;10.32;9.10;;;11.00;99.90;;;;;;6217614;23;20024;-88
2022/09/23 00:14:04;;;;;;;10.93;8.63;;;11.20;99.90;;;;;;6191319;23;20020;-89
2022/09/23 00:16:41;;;;;;;13.60;8.30;;;11.10;99.90;;;;;;6192061;23;20330;-87
2022/09/23 00:19:07;;;;;;;10.30;7.82;;;11.80;99.90;;;;;;6190714;23;20095;-88
2022/09/23 00:21:33;;;;;;;11.48;8.55;;;11.10;99.90;;;;;;6191632;23;20058;-88
2022/09/23 00:24:06;;;;;;;9.90;8.65;;;11.20;99.90;;;;;;6192223;23;20436;-88
2022/09/23 00:26:31;;;;;;;10.07;8.60;;;11.00;99.90;;;;;;6193410;23;20016;-88
2022/09/23 00:29:00;;;;;;;10.77;8.20;;;11.10;99.90;;;;;;6197747;23;20130;-88
2022/09/23 00:31:28;;;;;;;8.70;7.65;;;11.10;99.90;;;;;;6181063;23;20030;-87
2022/09/23 00:33:56;;;;;;;10.30;8.18;;;11.00;99.90;;;;;;6228427;23;20024;-88
2022/09/23 00:36:22;;;;;;;10.43;8.60;;;11.10;99.90;;;;;;6203823;23;20023;-88
2022/09/23 00:38:51;;;;;;;10.43;8.50;;;11.00;99.90;;;;;;6219876;23;20019;-88
2022/09/23 00:41:24;;;;;;;10.63;8.45;;;11.10;99.90;;;;;;6196396;23;20016;-87
2022/09/23 00:43:55;;;;;;;10.93;8.40;;;11.10;99.90;;;;;;6199196;23;20475;-88
2022/09/23 00:46:35;;;;;;;9.48;8.07;;;11.00;99.90;;;;;;6194667;23;20012;-88
2022/09/23 00:49:14;;;;;;;9.50;8.55;;;11.00;99.90;;;;;;6191778;23;20020;-88
2022/09/23 00:51:50;;;;;;;9.63;8.10;;;11.00;99.90;;;;;;6191934;23;20016;-88
2022/09/23 00:54:32;;;;;;;8.35;7.53;;;11.10;99.90;;;;;;6216883;23;20451;-88
2022/09/23 00:56:59;;;;;;;12.02;8.30;;;11.10;99.90;;;;;;6192381;23;20016;-87
2022/09/23 00:59:27;;;;;;;8.40;7.60;;;10.90;99.90;;;;;;6191311;23;20447;-88
2022/09/23 01:01:59;;;;;;;12.27;8.38;;;10.90;99.90;;;;;;6191463;23;20020;-88
2022/09/23 01:04:35;;;;;;;9.00;8.10;;;10.90;99.90;;;;;;6192153;23;20031;-88
2022/09/23 01:07:01;;;;;;;8.70;7.78;;;10.90;99.90;;;;;;6191576;23;20075;-88
2022/09/23 01:09:30;;;;;;;11.65;8.52;;;9.70;99.90;;;;;;6208146;22;20439;-88
2022/09/23 01:12:23;;;;;;;10.27;8.00;;;11.60;99.90;;;;;;6196624;22;20011;-88
2022/09/23 01:15:10;;;;;;;9.25;8.23;;;11.00;99.90;;;;;;6221534;22;20026;-88
2022/09/23 01:17:50;;;;;;;8.63;7.72;;;10.70;99.90;;;;;;6221479;22;20016;-88
2022/09/23 01:20:49;;;;;;;9.70;8.75;;;10.70;99.90;;;;;;6222060;22;20030;-89
2022/09/23 01:23:15;;;;;;;12.13;7.57;;;10.80;99.90;;;;;;6221753;22;20016;-88
2022/09/23 01:26:21;;;;;;;9.57;8.20;;;10.70;99.90;;;;;;6221396;22;20073;-88
2022/09/23 01:29:15;;;;;;;9.43;8.43;;;10.50;99.90;;;;;;6180292;22;20038;-89
2022/09/23 01:31:54;;;;;;;9.15;8.10;;;10.60;99.90;;;;;;6221363;22;20019;-87
2022/09/23 01:34:54;;;;;;;9.95;7.40;;;10.60;99.90;;;;;;6247216;22;20103;-88
2022/09/23 01:37:36;;;;;;;9.15;8.13;;;10.60;99.90;;;;;;6176174;22;20043;-88
2022/09/23 01:40:18;;;;;;;9.23;8.20;;;10.60;99.90;;;;;;6221482;22;20050;-89
2022/09/23 01:42:59;;;;;;;9.82;8.57;;;10.50;99.90;;;;;;6221162;22;20023;-87
2022/09/23 01:45:40;;;;;;;9.50;8.45;;;10.60;99.90;;;;;;6220681;22;20055;-88
2022/09/23 01:48:31;;;;;;;10.93;8.48;;;10.50;99.90;;;;;;6246591;22;20022;-88
2022/09/23 01:51:01;;;;;;;9.77;8.60;;;10.50;99.90;;;;;;6220710;22;20094;-88
2022/09/23 01:53:37;;;;;;;10.63;8.32;;;10.30;99.90;;;;;;6221589;22;20027;-88
2022/09/23 01:56:19;;;;;;;11.13;9.43;;;10.40;99.90;;;;;;6221038;22;20016;-88
2022/09/23 01:59:08;;;;;;;8.43;7.60;;;10.30;99.90;;;;;;6219208;22;20016;-88
2022/09/23 02:01:47;;;;;;;9.23;8.18;;;10.20;99.90;;;;;;6245795;22;20016;-87
2022/09/23 02:04:21;;;;;;;9.27;8.30;;;10.30;99.90;;;;;;6245706;22;20315;-87
2022/09/23 02:07:08;;;;;;;9.40;8.50;;;10.10;99.90;;;;;;6220161;22;20022;-89
2022/09/23 02:09:41;;;;;;;9.35;8.35;;;10.20;99.90;;;;;;6201863;23;20086;-88
2022/09/23 02:12:14;;;;;;;8.90;8.00;;;9.90;99.90;;;;;;6192339;23;20435;-88
2022/09/23 02:15:01;;;;;;;10.13;9.13;;;10.20;99.90;;;;;;6192490;23;20107;-89
2022/09/23 02:17:54;;;;;;;13.50;9.15;;;10.20;99.90;;;;;;6193035;23;20099;-88
2022/09/23 02:20:32;;;;;;;10.45;9.35;;;10.30;99.90;;;;;;6192474;23;20071;-88
2022/09/23 02:23:24;;;;;;;10.73;9.15;;;10.00;99.90;;;;;;6193022;23;20047;-88
2022/09/23 02:26:15;;;;;;;9.75;8.77;;;10.00;99.90;;;;;;6217629;23;20180;-89
2022/09/23 02:29:06;;;;;;;11.50;9.32;;;10.00;99.90;;;;;;6191653;23;20027;-88
2022/09/23 02:31:46;;;;;;;9.45;8.45;;;10.00;99.90;;;;;;6193150;23;20109;-88
2022/09/23 02:34:37;;;;;;;9.10;8.23;;;10.30;99.90;;;;;;6217647;23;20012;-90
2022/09/23 02:37:42;;;;;;;10.27;8.77;;;10.00;99.90;;;;;;6192648;23;20019;-87
2022/09/23 02:40:56;;;;;;;9.75;8.80;;;10.00;99.90;;;;;;6193119;23;20066;-88
2022/09/23 02:43:38;;;;;;;11.85;9.88;;;9.90;99.90;;;;;;6192966;23;20103;-88
2022/09/23 02:46:08;;;;;;;10.55;8.98;;;9.90;99.90;;;;;;6217256;23;20024;-88
2022/09/23 02:48:40;;;;;;;9.77;8.73;;;9.90;99.90;;;;;;6217270;23;20023;-88
2022/09/23 02:51:09;;;;;;;11.93;9.75;;;9.80;99.90;;;;;;6192599;23;20020;-89
2022/09/23 02:53:38;;;;;;;11.05;9.85;;;9.80;99.90;;;;;;6192101;23;20058;-88
2022/09/23 02:56:21;;;;;;;11.48;10.27;;;9.70;99.90;;;;;;6192991;23;20016;-89
2022/09/23 02:58:54;;;;;;;12.32;9.30;;;9.70;99.90;;;;;;6192544;23;20099;-86
2022/09/23 03:01:38;;;;;;;11.32;10.05;;;9.80;99.90;;;;;;6195904;23;20020;-87
2022/09/23 03:04:20;;;;;;;15.93;11.55;;;9.80;99.90;;;;;;6192500;23;20047;-88
2022/09/23 03:07:14;;;;;;;11.45;10.00;;;9.70;99.90;;;;;;6217248;23;20024;-88
2022/09/23 03:09:51;;;;;;;11.57;10.27;;;9.70;99.90;;;;;;6196070;23;20171;-87
2022/09/23 03:12:41;;;;;;;12.73;10.57;;;9.60;99.90;;;;;;6192110;23;20078;-88
2022/09/23 03:15:22;;;;;;;12.57;10.23;;;9.60;99.90;;;;;;6218524;23;20016;-87
2022/09/23 03:18:14;;;;;;;13.25;10.50;;;9.50;99.90;;;;;;6198299;23;20016;-88
2022/09/23 03:20:56;;;;;;;14.32;10.40;;;9.50;99.90;;;;;;6195482;23;20391;-87
2022/09/23 03:23:27;;;;;;;12.55;10.63;;;10.40;99.90;;;;;;6193753;23;20017;-89
2022/09/23 03:25:58;;;;;;;12.32;11.10;;;9.50;99.90;;;;;;6217809;23;20028;-88
2022/09/23 03:28:25;;;;;;;12.40;11.10;;;9.40;99.90;;;;;;6192207;23;20056;-89
2022/09/23 03:30:55;;;;;;;13.20;10.88;;;10.50;99.90;;;;;;6167102;23;20027;-88
2022/09/23 03:33:31;;;;;;;12.43;11.05;;;9.50;99.90;;;;;;6193373;23;20055;-89
2022/09/23 03:38:53;;;;;;;13.13;11.80;;;8.50;99.90;;;;;;6216533;23;20044;-88
2022/09/23 03:41:36;;;;;;;14.73;11.65;;;9.40;99.90;;;;;;6194584;23;20347;-89
2022/09/23 03:44:02;;;;;;;13.57;11.93;;;9.40;99.90;;;;;;6197379;23;20016;-88
2022/09/23 03:46:29;;;;;;;14.98;11.00;;;9.40;99.90;;;;;;6180338;23;20078;-88
2022/09/23 03:49:05;;;;;;;13.45;11.27;;;9.40;99.90;;;;;;6227573;23;20024;-87
2022/09/23 03:51:31;;;;;;;16.13;12.60;;;9.40;99.90;;;;;;6203494;23;20031;-87
2022/09/23 03:53:56;;;;;;;13.23;11.40;;;9.30;99.90;;;;;;6192842;23;20020;-88
2022/09/23 03:56:22;;;;;;;14.07;11.60;;;9.40;99.90;;;;;;6192347;23;20024;-88
2022/09/23 03:58:48;;;;;;;13.38;11.98;;;9.40;99.90;;;;;;6190316;23;20651;-88
2022/09/23 04:01:16;;;;;;;14.73;12.00;;;9.30;99.90;;;;;;6191067;23;20339;-88
2022/09/23 04:03:45;;;;;;;14.02;12.63;;;9.30;99.90;;;;;;6191723;23;20028;-87
2022/09/23 04:06:11;;;;;;;15.85;12.18;;;10.80;99.90;;;;;;6217801;23;20028;-89
2022/09/23 04:08:42;;;;;;;13.30;11.90;;;9.50;99.90;;;;;;6220343;22;20044;-88
2022/09/23 04:11:07;;;;;;;14.80;12.65;;;9.40;99.90;;;;;;6248219;22;20023;-88
2022/09/23 04:13:36;;;;;;;14.88;12.32;;;8.50;99.90;;;;;;6197183;22;20281;-86
2022/09/23 04:16:05;;;;;;;15.30;12.75;;;9.50;99.90;;;;;;6222031;22;20020;-88
2022/09/23 04:18:31;;;;;;;14.32;12.75;;;9.60;99.90;;;;;;6222527;22;20020;-89
2022/09/23 04:21:00;;;;;;;13.32;11.93;;;9.60;99.90;;;;;;6197714;22;20085;-88
2022/09/23 04:23:26;;;;;;;16.27;11.77;;;9.40;99.90;;;;;;6222879;22;20015;-88
2022/09/23 04:25:53;;;;;;;15.05;13.10;;;9.60;99.90;;;;;;6247059;22;20016;-89
2022/09/23 04:28:22;;;;;;;13.63;12.23;;;9.40;99.90;;;;;;6223164;22;20023;-89
2022/09/23 04:30:50;;;;;;;15.10;12.07;;;9.40;99.90;;;;;;6197005;22;20030;-88
2022/09/23 04:33:16;;;;;;;14.27;11.73;;;9.60;99.90;;;;;;6223087;22;20020;-88
2022/09/23 04:35:52;;;;;;;;;;;;;;;;;;;;;
2022/09/23 04:38:21;;;;;;;13.52;11.88;;;9.80;99.90;;;;;;6248267;22;20346;-89
2022/09/23 04:40:48;;;;;;;14.38;12.20;;;9.50;99.90;;;;;;6222007;22;20019;-86
2022/09/23 04:43:25;;;;;;;;;;;;;;;;;;;;;
2022/09/23 04:45:59;;;;;;;14.45;12.55;;;9.70;99.90;;;;;;6246794;22;20054;-90
2022/09/23 04:48:28;;;;;;;16.27;13.30;;;9.70;99.90;;;;;;6247146;22;20367;-89
2022/09/23 04:51:00;;;;;;;14.95;12.98;;;9.60;99.90;;;;;;6221629;22;20031;-89
2022/09/23 04:53:45;;;;;;;18.70;13.57;;;9.60;99.90;;;;;;6222678;22;20047;-87
2022/09/23 04:56:20;;;;;;;15.60;12.63;;;9.60;99.90;;;;;;6246804;22;20024;-86
2022/09/23 04:58:47;;;;;;;17.20;13.15;;;8.80;99.90;;;;;;6221547;22;20024;-89
2022/09/23 05:01:13;;;;;;;17.80;13.40;;;9.70;99.90;;;;;;6221598;22;20016;-89
2022/09/23 05:03:40;;;;;;;16.42;13.32;;;9.70;99.90;;;;;;6221948;22;20026;-88
2022/09/23 05:06:06;;;;;;;17.30;13.10;;;9.90;99.90;;;;;;6222635;22;20015;-88
2022/09/23 05:08:33;;;;;;;16.50;13.57;;;9.80;99.90;;;;;;6236089;22;20039;-88
2022/09/23 05:11:05;;;;;;;18.70;12.65;;;11.30;99.90;;;;;;6236127;22;20031;-89
2022/09/23 05:13:32;;;;;;;18.73;13.80;;;10.30;99.90;;;;;;6233265;22;20023;-89
2022/09/23 05:16:06;;;;;;;15.52;13.65;;;8.90;99.90;;;;;;6231431;22;20019;-88
2022/09/23 05:18:57;;;;;;;15.77;12.32;;;9.80;99.90;;;;;;6226124;22;20023;-87
2022/09/23 05:21:26;;;;;;;18.88;12.65;;;10.30;99.90;;;;;;6249456;22;20054;-87
2022/09/23 05:23:57;;;;;;;19.60;13.68;;;10.00;99.90;;;;;;6223919;22;20065;-88
2022/09/23 05:26:31;;;;;;;15.18;11.68;;;10.10;99.90;;;;;;6198052;22;20016;-88
2022/09/23 05:28:59;;;;;;;19.00;13.70;;;10.10;99.90;;;;;;6219780;22;20115;-89
2022/09/23 05:31:35;;;;;;;18.73;13.27;;;10.20;99.90;;;;;;6219345;22;20098;-89
2022/09/23 05:34:10;;;;;;;15.80;11.88;;;10.20;99.90;;;;;;6245136;22;20073;-89
2022/09/23 05:36:36;;;;;;;16.77;12.47;;;10.30;99.90;;;;;;6221623;22;20047;-88
2022/09/23 05:39:03;;;;;;;15.85;12.38;;;10.30;99.90;;;;;;6220556;22;20097;-88
2022/09/23 05:41:29;;;;;;;15.57;12.10;;;10.40;99.90;;;;;;6222115;22;20058;-89
2022/09/23 05:43:58;;;;;;;18.15;12.95;;;10.30;99.90;;;;;;6221191;22;20075;-88
2022/09/23 05:46:32;;;;;;;15.80;12.88;;;10.40;99.90;;;;;;6247233;22;20027;-88
2022/09/23 05:48:59;;;;;;;17.92;11.15;;;11.40;99.90;;;;;;6196947;22;20455;-88
2022/09/23 05:51:28;;;;;;;17.25;12.10;;;10.40;99.90;;;;;;6222247;22;20024;-88
2022/09/23 05:54:01;;;;;;;16.83;12.48;;;10.60;99.90;;;;;;6222193;22;20215;-88
2022/09/23 05:56:30;;;;;;;17.95;12.68;;;10.50;99.90;;;;;;6248092;22;20069;-88
2022/09/23 05:59:03;;;;;;;16.13;12.32;;;10.70;99.90;;;;;;6246675;22;20012;-89
2022/09/23 06:01:40;;;;;;;15.48;11.90;;;10.70;99.90;;;;;;6219859;22;20019;-89
2022/09/23 06:04:11;;;;;;;14.60;11.20;;;10.80;99.90;;;;;;6245455;22;20020;-86
2022/09/23 06:06:41;;;;;;;14.75;10.15;;;10.80;99.90;;;;;;6220217;22;20022;-82
2022/09/23 06:09:12;;;;;;;17.48;12.18;;;10.90;99.90;;;;;;6218469;22;20054;-84
2022/09/23 06:11:40;;;;;;;16.33;11.75;;;10.90;99.90;;;;;;6220191;22;20020;-87
2022/09/23 06:14:08;;;;;;;15.18;11.70;;;11.00;99.90;;;;;;6218552;22;20016;-84
2022/09/23 06:16:48;;;;;;;17.63;12.50;;;11.00;99.90;;;;;;6220843;22;20046;-91
2022/09/23 06:19:17;;;;;;;18.67;12.32;;;11.10;99.90;;;;;;6246162;22;20026;-86
2022/09/23 06:21:49;;;;;;;16.67;11.77;;;11.10;99.90;;;;;;6194893;22;20020;-86
2022/09/23 06:24:20;;;;;;;13.80;11.18;;;11.20;99.90;;;;;;6195892;22;20566;-86
2022/09/23 06:26:47;;;;;;;13.90;12.02;;;11.20;99.90;;;;;;6220198;22;20082;-88
2022/09/23 06:29:25;;;;;;;;;;;;;;;;;;;;;
2022/09/23 06:32:06;;;;;;;16.27;12.25;;;11.40;99.90;;;;;;6272553;22;20015;-87
2022/09/23 06:34:32;;;;;;;15.10;12.10;;;11.40;99.90;;;;;;6218639;22;20059;-84
2022/09/23 06:36:58;;;;;;;17.02;12.25;;;11.40;99.90;;;;;;6244189;22;20018;-87
2022/09/23 06:39:33;;;;;;;15.45;11.50;;;11.40;99.90;;;;;;6219426;22;20028;-85
2022/09/23 06:42:04;;;;;;;15.45;11.48;;;11.50;99.90;;;;;;6218980;22;20019;-84
2022/09/23 06:44:35;;;;;;;14.65;11.10;;;11.80;99.90;;;;;;6219814;22;20023;-84
2022/09/23 06:47:03;;;;;;;15.35;12.13;;;11.40;99.90;;;;;;6194190;22;20102;-87
2022/09/23 06:49:44;;;;;;;16.90;11.80;;;11.70;99.90;;;;;;6219696;22;20027;-86
2022/09/23 06:52:20;;;;;;;;;;;;;;;;;;;;;
2022/09/23 06:54:48;;;;;;;16.65;12.10;;;11.80;99.90;;;;;;6222231;22;20053;-89
2022/09/23 06:57:14;;;;;;;12.20;10.43;;;11.90;99.90;;;;;;6221229;22;20020;-88
2022/09/23 06:59:50;;;;;;;15.75;10.43;;;11.90;99.90;;;;;;6223307;22;20102;-87
2022/09/23 07:02:24;;;;;;;16.48;11.18;;;10.90;99.90;;;;;;6208915;22;20031;-88
2022/09/23 07:04:55;;;;;;;14.73;10.82;;;12.10;99.90;;;;;;6257495;22;20011;-87
2022/09/23 07:07:37;;;;;;;17.77;11.77;;;12.10;99.90;;;;;;6233720;22;20015;-88
2022/09/23 07:10:08;;;;;;;13.70;11.05;;;12.10;99.90;;;;;;6225202;22;20055;-88
2022/09/23 07:12:48;;;;;;;14.93;11.40;;;12.30;99.90;;;;;;6225213;22;20031;-89
2022/09/23 07:15:17;;;;;;;13.13;10.88;;;13.20;99.90;;;;;;6223372;22;20031;-89
2022/09/23 07:17:48;;;;;;;13.13;10.90;;;12.30;99.90;;;;;;6223586;22;20015;-88
2022/09/23 07:20:19;;;;;;;15.02;11.73;;;12.10;99.90;;;;;;6173432;22;20020;-89
2022/09/23 07:22:52;;;;;;;14.30;10.93;;;12.60;99.90;;;;;;6223785;22;20023;-88
2022/09/23 07:25:18;;;;;;;14.55;10.70;;;12.60;99.90;;;;;;6247324;22;20455;-89
2022/09/23 07:27:47;;;;;;;14.25;10.57;;;12.40;99.90;;;;;;6222526;22;20494;-88
2022/09/23 07:30:28;;;;;;;;;;;;;;;;;;;;;
2022/09/23 07:33:02;;;;;;;14.82;10.65;;;11.70;99.90;;;;;;6223494;22;20095;-88
2022/09/23 07:35:37;;;;;;;13.43;10.10;;;12.90;99.90;;;;;;6224384;22;20019;-87
2022/09/23 07:38:03;;;;;;;15.00;10.85;;;12.90;99.90;;;;;;6223960;22;20078;-86
2022/09/23 07:40:29;;;;;;;13.15;10.77;;;13.00;99.90;;;;;;6220996;22;20019;-84
2022/09/23 07:43:00;;;;;;;12.55;10.35;;;13.10;99.90;;;;;;6246229;22;20023;-88
2022/09/23 07:45:30;;;;;;;13.02;9.95;;;13.30;99.90;;;;;;6220563;22;20149;-87
2022/09/23 07:47:56;;;;;;;13.15;9.98;;;13.30;99.90;;;;;;6245846;22;20051;-87
2022/09/23 07:54:28;;;;;;;14.85;10.73;;;13.60;99.90;;;;;;6046811;23;20033;-88
2022/09/23 07:57:22;;;;;;;13.20;10.63;;;13.50;99.90;;;;;;6072011;23;20453;-89
2022/09/23 08:00:17;;;;;;;13.57;10.43;;;13.60;99.90;;;;;;6043748;23;20108;-90
2022/09/23 08:02:51;;;;;;;12.77;10.05;;;14.70;99.90;;;;;;6072555;23;20092;-83
2022/09/23 08:05:17;;;;;;;12.43;10.10;;;13.70;99.90;;;;;;6183565;22;20351;-85
2022/09/23 08:08:15;;;;;;;;;;;;;;;;;;;;;
2022/09/23 08:10:47;;;;;;;16.35;10.10;;;13.90;99.90;;;;;;6197308;23;20024;-85
2022/09/23 08:13:19;;;;;;;13.60;9.95;;;13.80;99.90;;;;;;6189890;23;20030;-86
2022/09/23 08:15:47;;;;;;;12.30;10.48;;;13.80;99.90;;;;;;6165593;23;20027;-85
2022/09/23 08:18:22;;;;;;;12.57;9.75;;;14.00;99.90;;;;;;6188392;23;20141;-85
2022/09/23 08:20:59;;;;;;;12.55;10.90;;;13.40;99.90;;;;;;6191284;23;20016;-86
2022/09/23 08:23:35;;;;;;;13.88;9.45;;;14.10;99.90;;;;;;6192117;23;20027;-84
2022/09/23 08:26:22;;;;;;;13.27;10.00;;;14.20;99.90;;;;;;6188632;23;20016;-87
2022/09/23 08:29:15;;;;;;;13.13;10.57;;;14.30;99.90;;;;;;6189155;23;20023;-86
2022/09/23 08:32:26;;;;;;;15.13;11.05;;;14.40;99.90;;;;;;6218822;23;20351;-87
2022/09/23 08:35:29;;;;;;;12.82;10.27;;;14.50;99.90;;;;;;6128049;23;20020;-86
2022/09/23 08:37:58;;;;;;;11.82;10.57;;;14.70;99.90;;;;;;6214337;23;20078;-86
2022/09/23 08:43:29;;;;;;;11.57;10.20;;;14.80;99.90;;;;;;6214027;23;20020;-85
2022/09/23 08:45:59;;;;;;;16.98;11.48;;;14.90;99.90;;;;;;6212514;23;20633;-86
2022/09/23 08:48:32;;;;;;;13.13;10.50;;;15.10;99.90;;;;;;6188374;23;20024;-87
2022/09/23 08:51:05;;;;;;;13.73;10.70;;;15.00;99.90;;;;;;6189590;23;20023;-85
2022/09/23 08:53:41;;;;;;;15.35;10.70;;;15.00;99.90;;;;;;6214421;23;20082;-87
2022/09/23 08:56:19;;;;;;;13.40;10.50;;;15.10;99.90;;;;;;6215531;23;20020;-86
2022/09/23 08:59:11;;;;;;;11.93;10.50;;;15.10;99.90;;;;;;6188785;23;20031;-86
2022/09/23 09:01:52;;;;;;;13.02;11.18;;;15.20;99.90;;;;;;6215223;23;20016;-87
2022/09/23 09:04:24;;;;;;;14.70;11.07;;;15.10;99.90;;;;;;6187508;23;20066;-85
2022/09/23 09:07:06;;;;;;;13.85;11.05;;;15.20;99.90;;;;;;6210190;23;20123;-85
2022/09/23 09:09:38;;;;;;;19.52;10.38;;;14.90;99.90;;;;;;6184125;23;20104;-86
2022/09/23 09:12:09;;;;;;;14.05;11.20;;;15.10;99.90;;;;;;6185816;23;20255;-86
2022/09/23 09:14:53;;;;;;;15.45;10.95;;;15.20;99.90;;;;;;6185368;23;20074;-85
2022/09/23 09:17:27;;;;;;;12.90;10.85;;;15.30;99.90;;;;;;6184834;23;20020;-87
2022/09/23 09:20:18;;;;;;;12.10;10.75;;;15.30;99.90;;;;;;6211724;23;20024;-86
2022/09/23 09:22:47;;;;;;;11.85;10.57;;;15.40;99.90;;;;;;6166878;23;20015;-85
2022/09/23 09:25:47;;;;;;;13.50;11.20;;;15.50;99.90;;;;;;6214477;23;20012;-86
2022/09/23 09:28:29;;;;;;;15.20;10.90;;;15.50;99.90;;;;;;6187189;23;20027;-85
2022/09/23 09:31:01;;;;;;;15.82;11.52;;;15.60;99.90;;;;;;6212828;23;20052;-86
2022/09/23 09:33:46;;;;;;;14.85;10.68;;;15.70;99.90;;;;;;6212354;23;20636;-86
2022/09/23 09:36:20;;;;;;;14.18;11.30;;;15.80;99.90;;;;;;6187644;23;20020;-85
2022/09/23 09:38:46;;;;;;;13.55;11.15;;;15.80;99.90;;;;;;6212557;23;20451;-86
2022/09/23 09:41:17;;;;;;;15.38;12.07;;;15.80;99.90;;;;;;6211754;23;20029;-86
2022/09/23 09:43:52;;;;;;;15.50;11.02;;;15.80;99.90;;;;;;6189847;23;20020;-86
2022/09/23 09:46:50;;;;;;;13.10;10.32;;;15.80;99.90;;;;;;6189076;23;20016;-86
2022/09/23 09:49:47;;;;;;;13.43;10.23;;;15.90;99.90;;;;;;6214289;23;20027;-86
2022/09/23 09:52:30;;;;;;;12.98;10.60;;;15.90;99.90;;;;;;6212681;23;20027;-86
2022/09/23 09:55:37;;;;;;;14.23;10.45;;;15.60;99.90;;;;;;6218763;23;20063;-86
2022/09/23 09:58:04;;;;;;;;;;;16.00;99.90;;;;;;6165990;23;20016;-83
2022/09/23 10:00:30;;;;;;;13.15;11.23;;;16.00;99.90;;;;;;6213931;23;19951;-84
2022/09/23 10:03:19;;;;;;;15.75;10.93;;;16.00;99.90;;;;;;6187524;23;20031;-86
2022/09/23 10:05:49;;;;;;;12.80;11.20;;;16.10;99.90;;;;;;6186107;23;20451;-86
2022/09/23 10:08:23;;;;;;;13.07;10.27;;;16.00;99.90;;;;;;6184110;23;20059;-84
2022/09/23 10:11:14;;;;;;;12.77;10.73;;;16.00;99.90;;;;;;6159794;23;20460;-84
2022/09/23 10:13:41;;;;;;;12.00;10.40;;;16.10;99.90;;;;;;6184148;23;20020;-84
2022/09/23 10:16:08;;;;;;;13.60;12.00;;;16.10;99.90;;;;;;6186067;23;20024;-84
2022/09/23 10:18:38;;;;;;;14.77;11.88;;;16.10;99.90;;;;;;6215504;23;20012;-85
2022/09/23 10:21:08;;;;;;;17.02;11.18;;;16.20;99.90;;;;;;6190024;23;20028;-83
2022/09/23 10:23:43;;;;;;;14.27;11.70;;;16.20;99.90;;;;;;6191311;23;20027;-84
2022/09/23 10:26:11;;;;;;;14.75;11.52;;;16.20;99.90;;;;;;6214390;23;20020;-83
2022/09/23 10:28:49;;;;;;;13.57;11.55;;;17.50;99.90;;;;;;6188918;23;20054;-83
2022/09/23 10:31:33;;;;;;;12.25;10.95;;;16.30;99.90;;;;;;6188712;23;20024;-84
2022/09/23 10:34:19;;;;;;;14.70;11.68;;;16.30;99.90;;;;;;6190624;23;20099;-83
2022/09/23 10:37:13;;;;;;;14.68;12.63;;;16.40;99.90;;;;;;6190799;23;20016;-82
2022/09/23 10:48:52;;;;;;;15.95;12.13;;;16.50;99.90;;;;;;6192003;23;20151;-83
2022/09/23 10:51:39;;;;;;;14.32;12.60;;;16.50;99.90;;;;;;6186511;23;20099;-82
2022/09/23 10:54:39;;;;;;;13.98;12.57;;;16.60;99.90;;;;;;6191072;23;20031;-83
2022/09/23 10:57:40;;;;;;;17.52;13.60;;;16.70;99.90;;;;;;6134051;23;20016;-83
2022/09/23 11:00:27;;;;;;;14.85;13.32;;;16.70;99.90;;;;;;6214033;23;20020;-82
2022/09/23 11:03:33;;;;;;;15.80;13.02;;;16.80;99.90;;;;;;6190629;23;20106;-83
2022/09/23 11:06:07;;;;;;;16.45;13.40;;;16.80;99.90;;;;;;6189607;23;20035;-84
2022/09/23 11:08:51;;;;;;;14.90;12.68;;;16.90;99.90;;;;;;6210111;23;20038;-86
2022/09/23 11:11:48;;;;;;;17.45;14.63;;;16.90;99.90;;;;;;6186813;23;20023;-87
2022/09/23 11:14:43;;;;;;;;;;;16.90;99.90;;;;;;6186805;23;20048;-86
2022/09/23 11:17:15;;;;;;;15.82;13.07;;;16.90;99.90;;;;;;6130771;23;19920;-85
2022/09/23 11:20:21;;;;;;;15.38;13.77;;;17.00;99.90;;;;;;6186162;23;20403;-86
2022/09/23 11:23:08;;;;;;;16.98;14.80;;;17.00;99.90;;;;;;6187468;23;20444;-86
2022/09/23 11:25:51;;;;;;;18.75;14.60;;;17.00;99.90;;;;;;6189865;23;20027;-84
2022/09/23 11:28:39;;;;;;;17.30;15.23;;;16.90;99.90;;;;;;6190650;23;20023;-86
2022/09/23 11:31:14;;;;;;;19.02;14.68;;;16.90;99.90;;;;;;6190311;23;20031;-85
2022/09/23 11:34:06;;;;;;;17.42;15.70;;;16.90;99.90;;;;;;6215383;23;20247;-85
2022/09/23 11:37:13;;;;;;;16.80;13.68;;;16.80;99.90;;;;;;6190676;23;20051;-83
2022/09/23 11:40:28;;;;;;;15.85;13.80;;;16.80;99.90;;;;;;6190855;23;20330;-85
2022/09/23 11:43:51;;;;;;;;;;;;;;;;;;;;;
2022/09/23 11:47:03;;;;;;;17.17;14.15;;;16.70;99.90;;;;;;6217542;23;20094;-85
2022/09/23 11:50:26;;;;;;;16.95;15.15;;;16.80;99.90;;;;;;6181161;23;20055;-85
2022/09/23 11:53:04;;;;;;;17.02;13.93;;;16.80;99.90;;;;;;6218975;23;20012;-86
2022/09/23 11:56:00;;;;;;;18.17;15.27;;;16.60;99.90;;;;;;6191661;23;20057;-84
2022/09/23 11:58:32;;;;;;;17.73;15.63;;;16.90;99.90;;;;;;6189546;23;20016;-83
2022/09/23 12:01:11;;;;;;;17.35;15.55;;;15.60;99.90;;;;;;6190011;23;20044;-84
2022/09/23 12:03:54;;;;;;;18.40;15.73;;;16.50;99.90;;;;;;6189800;23;20027;-84
2022/09/23 12:06:39;;;;;;;18.73;16.73;;;16.50;99.90;;;;;;6188471;23;20016;-84
2022/09/23 12:09:21;;;;;;;20.33;17.13;;;16.60;99.90;;;;;;6217636;22;20015;-85
2022/09/23 12:12:39;;;;;;;17.88;16.08;;;15.70;99.90;;;;;;6221320;22;20015;-85
2022/09/23 12:15:47;;;;;;;20.77;15.88;;;16.50;99.90;;;;;;6213617;22;20091;-83
2022/09/23 12:18:22;;;;;;;21.38;17.48;;;16.50;99.90;;;;;;6246384;22;20024;-84
2022/09/23 12:21:04;;;;;;;19.83;16.88;;;16.50;99.90;;;;;;6219984;22;20015;-84
2022/09/23 12:23:48;;;;;;;19.92;17.58;;;16.50;99.90;;;;;;6219894;22;20489;-84
2022/09/23 12:26:18;;;;;;;17.20;15.40;;;16.40;99.90;;;;;;6219084;22;20058;-85
2022/09/23 12:28:51;;;;;;;18.15;16.23;;;16.40;99.90;;;;;;6219020;22;20051;-86
2022/09/23 12:31:29;;;;;;;16.90;15.10;;;16.50;99.90;;;;;;6243525;22;20061;-85
2022/09/23 12:34:03;;;;;;;18.52;16.55;;;16.40;99.90;;;;;;6244655;22;20020;-85
2022/09/23 12:36:34;;;;;;;17.83;15.50;;;16.30;99.90;;;;;;6218900;22;20300;-84
2022/09/23 12:39:16;;;;;;;17.73;15.85;;;16.40;99.90;;;;;;6218854;22;20054;-84
2022/09/23 12:41:57;;;;;;;18.17;15.15;;;16.30;99.90;;;;;;6215342;22;20018;-85
2022/09/23 12:44:28;;;;;;;14.52;12.80;;;16.30;99.90;;;;;;6219235;22;20451;-84
2022/09/23 12:47:23;;;;;;;15.43;13.65;;;16.30;99.90;;;;;;6245072;22;20023;-84
2022/09/23 12:49:53;;;;;;;16.38;14.27;;;16.40;99.90;;;;;;6205569;22;20030;-84
2022/09/23 12:52:19;;;;;;;13.07;11.70;;;16.50;99.90;;;;;;6244948;22;20085;-79
2022/09/23 12:54:47;;;;;;;15.07;12.00;;;16.60;99.90;;;;;;6217929;22;20342;-79
2022/09/23 12:57:32;;;;;;;14.65;12.32;;;16.60;99.90;;;;;;6244080;22;20015;-80
2022/09/23 13:00:11;;;;;;;15.00;13.07;;;16.70;99.90;;;;;;6244644;22;20099;-85
2022/09/23 13:06:37;;;;;;;16.05;14.45;;;16.70;99.90;;;;;;6218058;22;20020;-83
2022/09/23 13:08:29;;;;;;;15.48;13.82;;;16.70;99.90;;;;;;6245092;22;20026;-89
2022/09/23 13:11:01;;;;;;;14.85;13.30;;;16.70;99.90;;;;;;6216354;23;20021;-87
2022/09/23 13:13:39;;;;;;;16.17;14.52;;;16.80;99.90;;;;;;6214209;23;20023;-86
2022/09/23 13:16:30;;;;;;;16.67;13.00;;;15.60;99.90;;;;;;6189898;23;20020;-87
2022/09/23 13:18:58;;;;;;;15.23;12.43;;;16.70;99.90;;;;;;6171870;23;20026;-86
2022/09/23 13:21:58;;;;;;;13.07;11.63;;;16.80;99.90;;;;;;6164537;23;20098;-87
2022/09/23 13:24:27;;;;;;;12.70;11.40;;;16.80;99.90;;;;;;6213216;23;20055;-86
2022/09/23 13:27:04;;;;;;;13.32;11.45;;;15.90;99.90;;;;;;6189077;23;20078;-86
2022/09/23 13:29:43;;;;;;;13.18;11.63;;;16.80;99.90;;;;;;6188642;23;20024;-86
2022/09/23 13:32:16;;;;;;;15.05;11.70;;;16.60;99.90;;;;;;6188969;23;20020;-87
2022/09/23 13:35:03;;;;;;;11.20;10.10;;;17.00;99.90;;;;;;6189755;23;20444;-86
2022/09/23 13:37:42;;;;;;;12.15;9.90;;;16.90;99.90;;;;;;6212907;23;20016;-86
2022/09/23 13:40:15;;;;;;;11.60;10.13;;;16.90;99.90;;;;;;6214856;23;20042;-87
2022/09/23 13:42:43;;;;;;;10.32;9.23;;;16.90;99.90;;;;;;6188412;23;20077;-85
2022/09/23 13:45:15;;;;;;;9.98;8.85;;;16.90;99.90;;;;;;6189573;23;20020;-87
2022/09/23 13:47:44;;;;;;;10.10;8.57;;;16.30;99.90;;;;;;6211850;23;20119;-86
2022/09/23 13:50:17;;;;;;;11.32;9.30;;;16.90;99.90;;;;;;6189420;23;20019;-87
2022/09/23 13:52:46;;;;;;;11.80;9.27;;;17.00;99.90;;;;;;6188818;23;20056;-86
2022/09/23 13:55:36;;;;;;;10.27;8.60;;;16.90;99.90;;;;;;6188514;23;20024;-86